• Join FlightAware (Why Join?)
  • Login
  • US Flag 
08:06AM EDT


 

Airport Tracker/Info


-or-


 

Live Flight TrackerFlight Track Log ✈ N45N ✈ 28-Sep-2013 ✈ KNUQ - KSLI

Flight Track Log - Related Links

Times and Time Zones

All times are in EDT time to prevent confusion due to time zone crossing. See the N45N flight status page for this flight to view local times or setup timezone preferences in your user account.

Time Position Orientation Groundspeed Altitude Reporting Facility
EDT Latitude Longitude Course Direction KTS MPH feet Rate Location/Type
11:44AM 37.4500 -122.0500 160° South 153 176 1,600  Level Northern Cal TRACON
11:45AM 37.4333 -122.0167 122° Southeast 140 161 2,800 660 Climbing Northern Cal TRACON
11:46AM 37.4167 -122.0167 180° South 173 199 3,000 480 Climbing Northern Cal TRACON
11:47AM 37.3500 -122.0000 169° South 172 198 3,800 840 Climbing Northern Cal TRACON
11:48AM 37.3006 -121.9717 155° Southeast 172 198 4,800 780 Climbing Oakland Center
11:49AM 37.0078 -121.7571 160° South  Level FlightAware Approximate
11:49AM 37.2578 -121.9408 150° Southeast 176 203 5,500  Level Oakland Center
11:50AM 37.2081 -121.9133 156° South 177 204 6,600 1,080 Climbing Oakland Center
11:51AM 37.1672 -121.8919 157° South 176 203 7,700 1,020 Climbing Oakland Center
11:52AM 37.1219 -121.8647 154° Southeast 180 207 8,700 900 Climbing Oakland Center
11:53AM 37.0753 -121.8367 154° Southeast 187 215 9,600 960 Climbing Oakland Center
11:54AM 37.0156 -121.8031 156° South 195 224 10,700 1,020 Climbing Oakland Center
11:55AM 36.9672 -121.7756 156° South 192 221 11,800 900 Climbing Oakland Center
11:56AM 36.9167 -121.7458 155° Southeast 200 230 12,600 540 Climbing Oakland Center
11:57AM 36.8647 -121.7164 156° South 206 237 13,000 180 Climbing Oakland Center
11:58AM 36.8167 -121.6833 151° Southeast 219 252 13,000  Level Northern Cal TRACON
11:59AM 36.7667 -121.6500 152° Southeast 225 259 13,000  Level Northern Cal TRACON
12:00PM 36.7167 -121.6333 165° South 229 264 13,000  Level Northern Cal TRACON
12:01PM 36.6667 -121.5833 141° Southeast 219 252 13,000  Level Northern Cal TRACON
12:02PM 36.6167 -121.5500 152° Southeast 211 243 13,000  Level Northern Cal TRACON
12:03PM 36.5667 -121.5000 141° Southeast 212 244 13,000  Level Northern Cal TRACON
12:04PM 36.5058 -121.4361 140° Southeast 215 247 13,000  Level Oakland Center
12:05PM 36.4592 -121.3919 143° Southeast 212 244 13,000  Level Oakland Center
12:06PM 36.4111 -121.3458 142° Southeast 217 250 13,000  Level Oakland Center
12:07PM 36.3639 -121.2992 141° Southeast 217 250 13,000  Level Oakland Center
12:08PM 36.3181 -121.2506 139° Southeast 218 251 13,000  Level Oakland Center
12:09PM 36.2736 -121.1994 137° Southeast 219 252 13,000  Level Oakland Center
12:10PM 36.2211 -121.1381 137° Southeast 218 251 13,000  Level Oakland Center
12:11PM 36.1767 -121.0883 138° Southeast 215 247 13,000  Level Oakland Center
12:12PM 36.1347 -121.0372 135° Southeast 213 245 13,000  Level Oakland Center
12:13PM 36.0925 -120.9856 135° Southeast 214 246 13,000  Level Oakland Center
12:14PM 36.0511 -120.9311 133° Southeast 216 249 13,000  Level Oakland Center
12:15PM 36.0100 -120.8753 132° Southeast 218 251 13,100  Climbing Oakland Center
12:16PM 35.9678 -120.8206 134° Southeast 221 254 13,100  Level Oakland Center
12:17PM 35.9256 -120.7653 133° Southeast 221 254 13,100  Level Oakland Center
12:18PM 35.8867 -120.7083 130° Southeast 219 252 13,100  Level Oakland Center
12:19PM 35.8483 -120.6519 130° Southeast 216 249 13,100  Level Oakland Center
12:20PM 35.8006 -120.5842 131° Southeast 217 250 13,100  Level Oakland Center
12:21PM 35.7619 -120.5275 130° Southeast 217 250 13,100  Level Oakland Center
12:22PM 35.7217 -120.4722 132° Southeast 216 249 13,100  Level Oakland Center
12:23PM 35.6803 -120.4172 133° Southeast 218 251 13,100  Level Oakland Center
12:24PM 35.6383 -120.3650 135° Southeast 216 249 13,100  Level Oakland Center
12:25PM 35.6019 -120.3231 137° Southeast 216 249 13,100  Level Los Angeles Center
12:26PM 35.5594 -120.2722 136° Southeast 214 246 13,100  Level Los Angeles Center
12:27PM 35.5172 -120.2211 135° Southeast 213 245 13,100  Level Los Angeles Center
12:28PM 35.4750 -120.1719 137° Southeast 212 244 13,100  Level Los Angeles Center
12:29PM 35.4331 -120.1181 134° Southeast 211 243 13,100  Level Los Angeles Center
12:30PM 35.3922 -120.0628 132° Southeast 215 247 13,100  Level Los Angeles Center
12:31PM 35.3444 -120.0000 133° Southeast 212 244 13,100  Level Los Angeles Center
12:32PM 35.3047 -119.9478 133° Southeast 211 243 13,100  Level Los Angeles Center
12:33PM 35.2642 -119.8947 133° Southeast 211 243 13,200  Climbing Los Angeles Center
12:35PM 35.2236 -119.8414 133° Southeast 213 245 13,200  Level Los Angeles Center
12:36PM 35.1831 -119.7886 133° Southeast 213 245 13,200  Level Los Angeles Center
12:37PM 35.1419 -119.7353 133° Southeast 214 246 13,200 -60 Level Los Angeles Center
12:38PM 35.0933 -119.6728 134° Southeast 213 245 13,100 -60 Descending Los Angeles Center
12:39PM 35.0536 -119.6203 133° Southeast 212 244 13,100  Level Los Angeles Center
12:40PM 35.0122 -119.5694 135° Southeast 211 243 13,100  Level Los Angeles Center
12:41PM 34.9664 -119.5244 141° Southeast 211 243 13,100 -240 Level Los Angeles Center
12:42PM 34.9194 -119.4781 141° Southeast 215 247 12,600 -480 Descending Los Angeles Center
12:43PM 34.8717 -119.4308 141° Southeast 221 254 12,200 -720 Descending Los Angeles Center
12:44PM 34.8169 -119.3758 140° Southeast 214 246 11,200 -540 Descending Los Angeles Center
12:45PM 34.7717 -119.3328 142° Southeast 209 241 11,100 -60 Descending Los Angeles Center
12:46PM 34.7300 -119.2900 140° Southeast 200 230 11,100 -60 Level Los Angeles Center
12:47PM 34.6950 -119.2561 141° Southeast 199 229 11,000 -300 Descending Los Angeles Center
12:48PM 34.6419 -119.2031 141° Southeast 205 236 10,600 -420 Descending Los Angeles Center
12:49PM 34.5942 -119.1503 138° Southeast 206 237 10,200 -300 Descending Los Angeles Center
12:50PM 34.5517 -119.1019 137° Southeast 210 242 10,100 -60 Descending Los Angeles Center
12:51PM 34.5119 -119.0567 137° Southeast 199 229 10,100 -120 Level Los Angeles Center
12:52PM 34.4764 -119.0061 130° Southeast 196 226 9,900 -300 Descending Los Angeles Center
12:53PM 34.4489 -118.9456 119° Southeast 204 235 9,500 -420 Descending Los Angeles Center
12:54PM 34.4217 -118.8700 114° Southeast 203 234 9,100 -300 Descending Los Angeles Center
12:55PM 34.3950 -118.8131 120° Southeast 195 224 9,000 -60 Descending Los Angeles Center
12:56PM 34.3639 -118.7586 125° Southeast 196 226 9,000  Level Los Angeles Center
12:57PM 34.3308 -118.7058 127° Southeast 197 227 9,000  Level Los Angeles Center
12:58PM 34.2986 -118.6503 125° Southeast 200 230 9,000  Level Los Angeles Center
12:59PM 34.2658 -118.5961 126° Southeast 200 230 9,000  Level Los Angeles Center
01:00PM 34.2167 -118.5167 127° Southeast 198 228 9,000  Level Southern California TRACON
01:01PM 34.1833 -118.4667 129° Southeast 199 229 9,000  Level Southern California TRACON
01:02PM 34.1833 -118.4000 90° East 192 221 9,000  Level Southern California TRACON
01:03PM 34.1500 -118.3500 129° Southeast 201 231 9,000  Level Southern California TRACON
01:05PM 34.1075 -118.3222 152° Southeast 200 230 9,000  Level Los Angeles Center
01:06PM 34.0606 -118.2853 147° Southeast 201 231 9,000  Level Los Angeles Center
01:07PM 34.0047 -118.2403 146° Southeast 199 229 9,000  Level Los Angeles Center
01:08PM 33.9578 -118.2033 147° Southeast 201 231 9,000 -480 Level Los Angeles Center
01:09PM 33.8989 -118.2033 180° South 211 243 8,100 -1,020 Descending Los Angeles Center
01:10PM 33.8397 -118.2203 193° South 214 246 7,000 -1,320 Descending Los Angeles Center
01:11PM 33.7831 -118.2353 192° South 211 243 5,400 -1,320 Descending Los Angeles Center
01:12PM 33.7314 -118.2206 167° South 202 232 4,300 -960 Descending Los Angeles Center
01:13PM 33.6803 -118.2272 186° South 191 220 3,500 -660 Descending Los Angeles Center
01:14PM 33.6381 -118.2256 178° South 177 204 3,000 -240 Descending Los Angeles Center
01:15PM 33.6250 -118.1806 109° East 167 192 3,100  Climbing Los Angeles Center
01:16PM 33.6486 -118.1389 56° Northeast 156 180 3,100 -60 Level Los Angeles Center
01:17PM 33.6667 -118.1167 46° Northeast 153 176 3,000 -360 Descending Southern California TRACON
01:18PM 33.7000 -118.0833 40° Northeast 161 185 2,600 -480 Descending Southern California TRACON
01:19PM 33.7333 -118.0667 23° Northeast 162 186 2,100 -420 Descending Southern California TRACON
01:20PM 33.7667 -118.0167 51° Northeast 142 163 1,800 -420 Descending Southern California TRACON
01:21PM 33.7833 -118.0000 40° Northeast 147 169 1,300 -720 Descending Southern California TRACON
01:22PM 33.8000 -118.0333 301° West 177 204 300 -960 Descending Southern California TRACON